sensor_id;sensor_type;location;lat;lon;timestamp;P1;durP1;ratioP1;P2;durP2;ratioP2
59374;SDS011;45172;55.006;73.460;2022-10-23T00:01:33;2.28;;;1.30;;
59374;SDS011;45172;55.006;73.460;2022-10-23T00:06:44;1.73;;;0.80;;
59374;SDS011;45172;55.006;73.460;2022-10-23T00:09:13;0.75;;;0.70;;
59374;SDS011;45172;55.006;73.460;2022-10-23T00:11:42;1.10;;;0.80;;
59374;SDS011;45172;55.006;73.460;2022-10-23T00:14:22;1.02;;;0.68;;
59374;SDS011;45172;55.006;73.460;2022-10-23T00:16:49;0.88;;;0.70;;
59374;SDS011;45172;55.006;73.460;2022-10-23T00:19:16;0.88;;;0.65;;
59374;SDS011;45172;55.006;73.460;2022-10-23T00:21:42;2.50;;;1.00;;
59374;SDS011;45172;55.006;73.460;2022-10-23T00:24:11;1.50;;;1.10;;
59374;SDS011;45172;55.006;73.460;2022-10-23T00:26:37;5.97;;;2.40;;
59374;SDS011;45172;55.006;73.460;2022-10-23T00:29:05;3.90;;;2.00;;
59374;SDS011;45172;55.006;73.460;2022-10-23T00:31:31;3.92;;;1.65;;
59374;SDS011;45172;55.006;73.460;2022-10-23T00:33:57;2.33;;;1.25;;
59374;SDS011;45172;55.006;73.460;2022-10-23T00:36:24;2.83;;;1.38;;
59374;SDS011;45172;55.006;73.460;2022-10-23T00:38:50;1.98;;;0.52;;
59374;SDS011;45172;55.006;73.460;2022-10-23T00:41:18;1.45;;;0.68;;
59374;SDS011;45172;55.006;73.460;2022-10-23T00:43:55;3.10;;;0.52;;
59374;SDS011;45172;55.006;73.460;2022-10-23T00:46:34;1.27;;;0.40;;
59374;SDS011;45172;55.006;73.460;2022-10-23T00:49:11;0.28;;;0.28;;
59374;SDS011;45172;55.006;73.460;2022-10-23T00:51:41;2.30;;;0.45;;
59374;SDS011;45172;55.006;73.460;2022-10-23T00:54:16;0.90;;;0.40;;
59374;SDS011;45172;55.006;73.460;2022-10-23T00:56:44;0.50;;;0.38;;
59374;SDS011;45172;55.006;73.460;2022-10-23T00:59:14;4.35;;;0.50;;
59374;SDS011;45172;55.006;73.460;2022-10-23T01:01:40;2.92;;;0.40;;
59374;SDS011;45172;55.006;73.460;2022-10-23T01:04:06;0.40;;;0.40;;
59374;SDS011;45172;55.006;73.460;2022-10-23T01:06:51;1.52;;;0.50;;
59374;SDS011;45172;55.006;73.460;2022-10-23T01:12:37;1.30;;;0.47;;
59374;SDS011;45172;55.006;73.460;2022-10-23T01:15:30;0.68;;;0.43;;
59374;SDS011;45172;55.006;73.460;2022-10-23T01:26:05;1.40;;;0.90;;
59374;SDS011;45172;55.006;73.460;2022-10-23T01:28:38;0.80;;;0.60;;
59374;SDS011;45172;55.006;73.460;2022-10-23T01:31:33;7.90;;;0.52;;
59374;SDS011;45172;55.006;73.460;2022-10-23T01:34:08;2.20;;;0.65;;
59374;SDS011;45172;55.006;73.460;2022-10-23T01:36:44;4.28;;;0.98;;
59374;SDS011;45172;55.006;73.460;2022-10-23T01:39:33;0.80;;;0.50;;
59374;SDS011;45172;55.006;73.460;2022-10-23T01:42:07;1.77;;;0.70;;
59374;SDS011;45172;55.006;73.460;2022-10-23T01:44:57;1.02;;;0.57;;
59374;SDS011;45172;55.006;73.460;2022-10-23T01:47:31;1.27;;;0.68;;
59374;SDS011;45172;55.006;73.460;2022-10-23T01:50:02;2.85;;;0.88;;
59374;SDS011;45172;55.006;73.460;2022-10-23T01:52:30;1.20;;;0.75;;
59374;SDS011;45172;55.006;73.460;2022-10-23T01:54:57;1.00;;;0.73;;
59374;SDS011;45172;55.006;73.460;2022-10-23T01:57:26;0.70;;;0.70;;
59374;SDS011;45172;55.006;73.460;2022-10-23T01:59:57;2.28;;;0.98;;
59374;SDS011;45172;55.006;73.460;2022-10-23T02:02:26;1.35;;;0.90;;
59374;SDS011;45172;55.006;73.460;2022-10-23T02:04:56;1.38;;;1.00;;
59374;SDS011;45172;55.006;73.460;2022-10-23T02:07:32;1.70;;;0.85;;
59374;SDS011;45172;55.006;73.460;2022-10-23T02:09:59;1.45;;;0.50;;
59374;SDS011;45172;55.006;73.460;2022-10-23T02:12:47;0.82;;;0.40;;
59374;SDS011;45172;55.006;73.460;2022-10-23T02:18:10;0.98;;;0.70;;
59374;SDS011;45172;55.006;73.460;2022-10-23T02:20:47;2.72;;;0.85;;
59374;SDS011;45172;55.006;73.460;2022-10-23T02:23:53;2.35;;;1.05;;
59374;SDS011;45172;55.006;73.460;2022-10-23T02:26:29;3.25;;;0.68;;
59374;SDS011;45172;55.006;73.460;2022-10-23T02:29:09;0.55;;;0.55;;
59374;SDS011;45172;55.006;73.460;2022-10-23T02:31:40;0.88;;;0.60;;
59374;SDS011;45172;55.006;73.460;2022-10-23T02:34:15;0.70;;;0.70;;
59374;SDS011;45172;55.006;73.460;2022-10-23T02:36:41;1.42;;;0.70;;
59374;SDS011;45172;55.006;73.460;2022-10-23T02:39:08;2.95;;;0.80;;
59374;SDS011;45172;55.006;73.460;2022-10-23T02:41:36;7.18;;;1.30;;
59374;SDS011;45172;55.006;73.460;2022-10-23T02:44:30;2.47;;;1.40;;
59374;SDS011;45172;55.006;73.460;2022-10-23T02:50:09;6.80;;;2.50;;
59374;SDS011;45172;55.006;73.460;2022-10-23T02:56:18;10.85;;;3.65;;
59374;SDS011;45172;55.006;73.460;2022-10-23T02:59:10;7.75;;;2.17;;
59374;SDS011;45172;55.006;73.460;2022-10-23T03:01:47;3.30;;;1.52;;
59374;SDS011;45172;55.006;73.460;2022-10-23T03:04:17;5.15;;;2.38;;
59374;SDS011;45172;55.006;73.460;2022-10-23T03:06:46;10.55;;;3.90;;
59374;SDS011;45172;55.006;73.460;2022-10-23T03:09:13;12.98;;;7.43;;
59374;SDS011;45172;55.006;73.460;2022-10-23T03:11:39;18.77;;;8.55;;
59374;SDS011;45172;55.006;73.460;2022-10-23T03:14:15;103.30;;;40.55;;
59374;SDS011;45172;55.006;73.460;2022-10-23T03:16:41;37.75;;;18.23;;
59374;SDS011;45172;55.006;73.460;2022-10-23T03:19:12;51.88;;;22.45;;
59374;SDS011;45172;55.006;73.460;2022-10-23T03:21:39;78.78;;;34.08;;
59374;SDS011;45172;55.006;73.460;2022-10-23T03:24:05;48.78;;;22.20;;
59374;SDS011;45172;55.006;73.460;2022-10-23T03:26:31;151.82;;;61.30;;
59374;SDS011;45172;55.006;73.460;2022-10-23T03:28:57;52.72;;;22.77;;
59374;SDS011;45172;55.006;73.460;2022-10-23T03:31:23;37.65;;;14.65;;
59374;SDS011;45172;55.006;73.460;2022-10-23T03:33:50;42.42;;;14.15;;
59374;SDS011;45172;55.006;73.460;2022-10-23T03:36:15;30.25;;;11.35;;
59374;SDS011;45172;55.006;73.460;2022-10-23T03:38:41;28.77;;;8.63;;
59374;SDS011;45172;55.006;73.460;2022-10-23T03:41:11;14.13;;;5.55;;
59374;SDS011;45172;55.006;73.460;2022-10-23T03:43:37;13.90;;;5.30;;
59374;SDS011;45172;55.006;73.460;2022-10-23T03:46:03;7.00;;;2.10;;
59374;SDS011;45172;55.006;73.460;2022-10-23T03:48:39;5.60;;;2.50;;
59374;SDS011;45172;55.006;73.460;2022-10-23T03:51:06;5.90;;;2.42;;
59374;SDS011;45172;55.006;73.460;2022-10-23T03:53:32;5.00;;;2.80;;
59374;SDS011;45172;55.006;73.460;2022-10-23T03:56:03;5.47;;;2.92;;
59374;SDS011;45172;55.006;73.460;2022-10-23T03:58:30;6.97;;;2.25;;
59374;SDS011;45172;55.006;73.460;2022-10-23T04:00:56;4.55;;;2.22;;
59374;SDS011;45172;55.006;73.460;2022-10-23T04:03:22;6.28;;;2.60;;
59374;SDS011;45172;55.006;73.460;2022-10-23T04:05:55;3.08;;;1.90;;
59374;SDS011;45172;55.006;73.460;2022-10-23T04:08:21;6.22;;;2.50;;
59374;SDS011;45172;55.006;73.460;2022-10-23T04:10:47;5.13;;;1.70;;
59374;SDS011;45172;55.006;73.460;2022-10-23T04:13:13;4.20;;;1.60;;
59374;SDS011;45172;55.006;73.460;2022-10-23T04:15:39;5.15;;;1.63;;
59374;SDS011;45172;55.006;73.460;2022-10-23T04:18:09;19.88;;;8.35;;
59374;SDS011;45172;55.006;73.460;2022-10-23T04:20:35;14.45;;;6.30;;
59374;SDS011;45172;55.006;73.460;2022-10-23T04:23:01;9.30;;;5.07;;
59374;SDS011;45172;55.006;73.460;2022-10-23T04:25:27;2.45;;;1.20;;
59374;SDS011;45172;55.006;73.460;2022-10-23T04:27:53;8.85;;;4.68;;
59374;SDS011;45172;55.006;73.460;2022-10-23T04:30:19;4.55;;;1.58;;
59374;SDS011;45172;55.006;73.460;2022-10-23T04:32:50;3.30;;;1.63;;
59374;SDS011;45172;55.006;73.460;2022-10-23T04:35:17;2.72;;;1.90;;
59374;SDS011;45172;55.006;73.460;2022-10-23T04:37:44;4.35;;;1.45;;
59374;SDS011;45172;55.006;73.460;2022-10-23T04:40:10;5.18;;;1.48;;
59374;SDS011;45172;55.006;73.460;2022-10-23T04:42:36;2.03;;;1.00;;
59374;SDS011;45172;55.006;73.460;2022-10-23T04:45:02;2.13;;;1.20;;
59374;SDS011;45172;55.006;73.460;2022-10-23T04:47:29;1.10;;;0.90;;
59374;SDS011;45172;55.006;73.460;2022-10-23T04:49:55;3.08;;;1.17;;
59374;SDS011;45172;55.006;73.460;2022-10-23T04:52:21;2.45;;;1.00;;
59374;SDS011;45172;55.006;73.460;2022-10-23T04:54:48;3.53;;;1.13;;
59374;SDS011;45172;55.006;73.460;2022-10-23T04:57:14;3.15;;;1.52;;
59374;SDS011;45172;55.006;73.460;2022-10-23T04:59:40;4.07;;;1.95;;
59374;SDS011;45172;55.006;73.460;2022-10-23T05:02:06;7.45;;;2.72;;
59374;SDS011;45172;55.006;73.460;2022-10-23T05:04:32;9.05;;;2.97;;
59374;SDS011;45172;55.006;73.460;2022-10-23T05:07:09;8.20;;;3.22;;
59374;SDS011;45172;55.006;73.460;2022-10-23T05:09:34;5.63;;;2.40;;
59374;SDS011;45172;55.006;73.460;2022-10-23T05:12:00;5.03;;;2.20;;
59374;SDS011;45172;55.006;73.460;2022-10-23T05:14:26;2.10;;;1.50;;
59374;SDS011;45172;55.006;73.460;2022-10-23T05:16:54;6.18;;;2.30;;
59374;SDS011;45172;55.006;73.460;2022-10-23T05:19:33;4.15;;;2.10;;
59374;SDS011;45172;55.006;73.460;2022-10-23T05:22:02;6.20;;;2.20;;
59374;SDS011;45172;55.006;73.460;2022-10-23T05:24:35;5.00;;;2.42;;
59374;SDS011;45172;55.006;73.460;2022-10-23T05:27:01;5.95;;;2.53;;
59374;SDS011;45172;55.006;73.460;2022-10-23T05:29:27;3.85;;;1.77;;
59374;SDS011;45172;55.006;73.460;2022-10-23T05:31:59;4.22;;;1.60;;
59374;SDS011;45172;55.006;73.460;2022-10-23T05:34:30;4.43;;;1.63;;
59374;SDS011;45172;55.006;73.460;2022-10-23T05:36:57;6.75;;;2.95;;
59374;SDS011;45172;55.006;73.460;2022-10-23T05:39:23;4.20;;;2.30;;
59374;SDS011;45172;55.006;73.460;2022-10-23T05:41:50;6.15;;;3.10;;
59374;SDS011;45172;55.006;73.460;2022-10-23T05:44:16;7.40;;;2.63;;
59374;SDS011;45172;55.006;73.460;2022-10-23T05:46:42;5.95;;;2.83;;
59374;SDS011;45172;55.006;73.460;2022-10-23T05:49:19;18.02;;;5.40;;
59374;SDS011;45172;55.006;73.460;2022-10-23T05:51:47;8.73;;;3.65;;
59374;SDS011;45172;55.006;73.460;2022-10-23T05:54:13;7.40;;;1.98;;
59374;SDS011;45172;55.006;73.460;2022-10-23T05:56:39;6.53;;;2.53;;
59374;SDS011;45172;55.006;73.460;2022-10-23T05:59:06;7.18;;;2.95;;
59374;SDS011;45172;55.006;73.460;2022-10-23T06:01:32;18.92;;;5.93;;
59374;SDS011;45172;55.006;73.460;2022-10-23T06:04:01;13.73;;;3.67;;
59374;SDS011;45172;55.006;73.460;2022-10-23T06:06:28;21.98;;;6.95;;
59374;SDS011;45172;55.006;73.460;2022-10-23T06:08:54;7.00;;;2.75;;
59374;SDS011;45172;55.006;73.460;2022-10-23T06:11:21;15.95;;;6.30;;
59374;SDS011;45172;55.006;73.460;2022-10-23T06:13:46;17.35;;;7.70;;
59374;SDS011;45172;55.006;73.460;2022-10-23T06:16:17;9.23;;;5.00;;
59374;SDS011;45172;55.006;73.460;2022-10-23T06:18:44;8.57;;;3.83;;
59374;SDS011;45172;55.006;73.460;2022-10-23T06:21:11;6.00;;;1.77;;
59374;SDS011;45172;55.006;73.460;2022-10-23T06:23:38;18.50;;;5.82;;
59374;SDS011;45172;55.006;73.460;2022-10-23T06:26:06;8.68;;;3.53;;
59374;SDS011;45172;55.006;73.460;2022-10-23T06:28:33;6.90;;;2.80;;
59374;SDS011;45172;55.006;73.460;2022-10-23T06:31:02;8.95;;;3.42;;
59374;SDS011;45172;55.006;73.460;2022-10-23T06:33:32;5.72;;;2.63;;
59374;SDS011;45172;55.006;73.460;2022-10-23T06:35:59;6.88;;;2.53;;
59374;SDS011;45172;55.006;73.460;2022-10-23T06:38:24;2.97;;;1.60;;
59374;SDS011;45172;55.006;73.460;2022-10-23T06:40:51;4.70;;;1.83;;
59374;SDS011;45172;55.006;73.460;2022-10-23T06:43:18;3.78;;;1.85;;
59374;SDS011;45172;55.006;73.460;2022-10-23T06:45:54;4.72;;;2.63;;
59374;SDS011;45172;55.006;73.460;2022-10-23T06:48:20;7.85;;;2.20;;
59374;SDS011;45172;55.006;73.460;2022-10-23T06:50:46;7.85;;;2.08;;
59374;SDS011;45172;55.006;73.460;2022-10-23T06:53:12;3.55;;;1.95;;
59374;SDS011;45172;55.006;73.460;2022-10-23T06:55:38;3.38;;;1.50;;
59374;SDS011;45172;55.006;73.460;2022-10-23T06:58:14;3.88;;;1.67;;
59374;SDS011;45172;55.006;73.460;2022-10-23T07:00:40;7.10;;;1.65;;
59374;SDS011;45172;55.006;73.460;2022-10-23T07:03:06;2.40;;;1.33;;
59374;SDS011;45172;55.006;73.460;2022-10-23T07:05:33;3.78;;;1.73;;
59374;SDS011;45172;55.006;73.460;2022-10-23T07:07:59;3.13;;;1.70;;
59374;SDS011;45172;55.006;73.460;2022-10-23T07:10:35;3.97;;;2.10;;
59374;SDS011;45172;55.006;73.460;2022-10-23T07:13:10;4.85;;;2.22;;
59374;SDS011;45172;55.006;73.460;2022-10-23T07:15:42;8.38;;;2.50;;
59374;SDS011;45172;55.006;73.460;2022-10-23T07:18:08;6.07;;;2.60;;
59374;SDS011;45172;55.006;73.460;2022-10-23T07:20:55;8.07;;;2.03;;
59374;SDS011;45172;55.006;73.460;2022-10-23T07:23:22;4.10;;;2.20;;
59374;SDS011;45172;55.006;73.460;2022-10-23T07:25:53;7.95;;;2.08;;
59374;SDS011;45172;55.006;73.460;2022-10-23T07:28:19;5.35;;;2.15;;
59374;SDS011;45172;55.006;73.460;2022-10-23T07:30:54;6.00;;;2.60;;
59374;SDS011;45172;55.006;73.460;2022-10-23T07:33:21;3.45;;;1.30;;
59374;SDS011;45172;55.006;73.460;2022-10-23T07:35:47;4.72;;;1.45;;
59374;SDS011;45172;55.006;73.460;2022-10-23T07:38:14;5.43;;;2.20;;
59374;SDS011;45172;55.006;73.460;2022-10-23T07:40:40;3.92;;;1.90;;
59374;SDS011;45172;55.006;73.460;2022-10-23T07:43:06;6.00;;;1.77;;
59374;SDS011;45172;55.006;73.460;2022-10-23T07:45:38;8.55;;;1.80;;
59374;SDS011;45172;55.006;73.460;2022-10-23T07:48:04;8.20;;;2.50;;
59374;SDS011;45172;55.006;73.460;2022-10-23T07:50:41;12.80;;;2.80;;
59374;SDS011;45172;55.006;73.460;2022-10-23T07:53:19;7.10;;;3.10;;
59374;SDS011;45172;55.006;73.460;2022-10-23T07:55:57;10.27;;;3.28;;
59374;SDS011;45172;55.006;73.460;2022-10-23T07:58:24;7.22;;;2.35;;
59374;SDS011;45172;55.006;73.460;2022-10-23T08:00:58;10.25;;;2.42;;
59374;SDS011;45172;55.006;73.460;2022-10-23T08:03:26;2.65;;;1.83;;
59374;SDS011;45172;55.006;73.460;2022-10-23T08:05:54;3.92;;;1.65;;
59374;SDS011;45172;55.006;73.460;2022-10-23T08:08:21;5.63;;;1.63;;
59374;SDS011;45172;55.006;73.460;2022-10-23T08:10:48;3.63;;;1.60;;
59374;SDS011;45172;55.006;73.460;2022-10-23T08:13:15;3.53;;;1.90;;
59374;SDS011;45172;55.006;73.460;2022-10-23T08:15:45;7.82;;;3.22;;
59374;SDS011;45172;55.006;73.460;2022-10-23T08:18:13;4.80;;;2.50;;
59374;SDS011;45172;55.006;73.460;2022-10-23T08:20:44;8.88;;;2.72;;
59374;SDS011;45172;55.006;73.460;2022-10-23T08:23:15;4.53;;;1.70;;
59374;SDS011;45172;55.006;73.460;2022-10-23T08:25:59;3.35;;;1.40;;
59374;SDS011;45172;55.006;73.460;2022-10-23T08:28:37;5.30;;;1.40;;
59374;SDS011;45172;55.006;73.460;2022-10-23T08:31:14;4.72;;;1.25;;
59374;SDS011;45172;55.006;73.460;2022-10-23T08:33:41;6.85;;;1.70;;
59374;SDS011;45172;55.006;73.460;2022-10-23T08:36:20;4.65;;;1.83;;
59374;SDS011;45172;55.006;73.460;2022-10-23T08:38:49;5.25;;;1.42;;
59374;SDS011;45172;55.006;73.460;2022-10-23T08:41:26;4.05;;;1.63;;
59374;SDS011;45172;55.006;73.460;2022-10-23T08:44:06;4.85;;;1.60;;
59374;SDS011;45172;55.006;73.460;2022-10-23T08:46:41;8.35;;;1.27;;
59374;SDS011;45172;55.006;73.460;2022-10-23T08:51:54;4.53;;;2.03;;
59374;SDS011;45172;55.006;73.460;2022-10-23T08:54:44;2.05;;;1.80;;
59374;SDS011;45172;55.006;73.460;2022-10-23T08:57:21;8.77;;;2.83;;
59374;SDS011;45172;55.006;73.460;2022-10-23T08:59:57;4.90;;;2.47;;
59374;SDS011;45172;55.006;73.460;2022-10-23T09:02:37;7.28;;;1.55;;
59374;SDS011;45172;55.006;73.460;2022-10-23T09:05:20;2.38;;;1.27;;
59374;SDS011;45172;55.006;73.460;2022-10-23T09:19:10;4.43;;;0.70;;
59374;SDS011;45172;55.006;73.460;2022-10-23T09:21:40;4.75;;;1.20;;
59374;SDS011;45172;55.006;73.460;2022-10-23T09:24:11;3.17;;;1.45;;
59374;SDS011;45172;55.006;73.460;2022-10-23T09:26:45;2.17;;;1.35;;
59374;SDS011;45172;55.006;73.460;2022-10-23T09:29:32;4.80;;;2.40;;
59374;SDS011;45172;55.006;73.460;2022-10-23T09:32:03;6.30;;;1.95;;
59374;SDS011;45172;55.006;73.460;2022-10-23T09:34:31;7.43;;;2.00;;
59374;SDS011;45172;55.006;73.460;2022-10-23T09:37:00;5.18;;;2.22;;
59374;SDS011;45172;55.006;73.460;2022-10-23T09:39:32;6.20;;;2.60;;
59374;SDS011;45172;55.006;73.460;2022-10-23T09:42:06;5.65;;;2.30;;
59374;SDS011;45172;55.006;73.460;2022-10-23T09:44:56;10.15;;;4.50;;
59374;SDS011;45172;55.006;73.460;2022-10-23T09:47:28;8.40;;;3.67;;
59374;SDS011;45172;55.006;73.460;2022-10-23T09:49:55;5.57;;;3.25;;
59374;SDS011;45172;55.006;73.460;2022-10-23T09:52:27;5.57;;;2.38;;
59374;SDS011;45172;55.006;73.460;2022-10-23T09:55:00;4.75;;;2.28;;
59374;SDS011;45172;55.006;73.460;2022-10-23T10:00:01;7.35;;;3.13;;
59374;SDS011;45172;55.006;73.460;2022-10-23T10:02:36;5.07;;;2.88;;
59374;SDS011;45172;55.006;73.460;2022-10-23T10:10:40;6.78;;;3.13;;
59374;SDS011;45172;55.006;73.460;2022-10-23T10:24:29;7.10;;;4.60;;
59374;SDS011;45172;55.006;73.460;2022-10-23T10:43:20;11.45;;;6.40;;
59374;SDS011;45172;55.006;73.460;2022-10-23T10:51:10;9.18;;;4.93;;
59374;SDS011;45172;55.006;73.460;2022-10-23T10:56:46;11.95;;;6.63;;
59374;SDS011;45172;55.006;73.460;2022-10-23T10:59:15;6.55;;;5.18;;
59374;SDS011;45172;55.006;73.460;2022-10-23T11:01:54;8.60;;;4.30;;
59374;SDS011;45172;55.006;73.460;2022-10-23T11:04:48;12.10;;;5.35;;
59374;SDS011;45172;55.006;73.460;2022-10-23T11:07:26;12.95;;;5.50;;
59374;SDS011;45172;55.006;73.460;2022-10-23T11:10:15;10.35;;;4.97;;
59374;SDS011;45172;55.006;73.460;2022-10-23T11:12:45;13.82;;;6.85;;
59374;SDS011;45172;55.006;73.460;2022-10-23T11:15:24;12.23;;;6.38;;
59374;SDS011;45172;55.006;73.460;2022-10-23T11:18:04;18.13;;;6.35;;
59374;SDS011;45172;55.006;73.460;2022-10-23T11:24:03;18.00;;;9.30;;
59374;SDS011;45172;55.006;73.460;2022-10-23T11:37:59;14.48;;;6.40;;
59374;SDS011;45172;55.006;73.460;2022-10-23T11:40:46;12.25;;;6.28;;
59374;SDS011;45172;55.006;73.460;2022-10-23T11:43:28;17.05;;;7.15;;
59374;SDS011;45172;55.006;73.460;2022-10-23T11:46:13;15.13;;;8.13;;
59374;SDS011;45172;55.006;73.460;2022-10-23T11:48:54;9.93;;;6.18;;
59374;SDS011;45172;55.006;73.460;2022-10-23T11:51:29;13.77;;;7.00;;
59374;SDS011;45172;55.006;73.460;2022-10-23T11:59:27;14.68;;;6.63;;
59374;SDS011;45172;55.006;73.460;2022-10-23T12:02:24;11.93;;;5.55;;
59374;SDS011;45172;55.006;73.460;2022-10-23T12:05:05;11.40;;;6.07;;
59374;SDS011;45172;55.006;73.460;2022-10-23T12:07:37;13.88;;;6.90;;
59374;SDS011;45172;55.006;73.460;2022-10-23T12:10:25;10.50;;;5.25;;
59374;SDS011;45172;55.006;73.460;2022-10-23T12:13:04;10.90;;;5.80;;
59374;SDS011;45172;55.006;73.460;2022-10-23T12:15:52;14.00;;;4.70;;
59374;SDS011;45172;55.006;73.460;2022-10-23T12:18:49;11.93;;;5.05;;
59374;SDS011;45172;55.006;73.460;2022-10-23T12:21:18;8.65;;;4.53;;
59374;SDS011;45172;55.006;73.460;2022-10-23T12:40:30;7.47;;;3.70;;
59374;SDS011;45172;55.006;73.460;2022-10-23T12:42:58;8.07;;;3.50;;
59374;SDS011;45172;55.006;73.460;2022-10-23T12:45:33;5.15;;;3.33;;
59374;SDS011;45172;55.006;73.460;2022-10-23T12:48:05;6.28;;;3.00;;
59374;SDS011;45172;55.006;73.460;2022-10-23T12:50:32;5.70;;;3.05;;
59374;SDS011;45172;55.006;73.460;2022-10-23T12:53:03;3.58;;;2.85;;
59374;SDS011;45172;55.006;73.460;2022-10-23T12:55:45;8.65;;;2.80;;
59374;SDS011;45172;55.006;73.460;2022-10-23T12:58:23;7.50;;;4.20;;
59374;SDS011;45172;55.006;73.460;2022-10-23T13:01:01;9.07;;;4.47;;
59374;SDS011;45172;55.006;73.460;2022-10-23T13:03:31;13.40;;;3.67;;
59374;SDS011;45172;55.006;73.460;2022-10-23T13:05:59;6.72;;;3.97;;
59374;SDS011;45172;55.006;73.460;2022-10-23T13:08:33;4.80;;;2.53;;
59374;SDS011;45172;55.006;73.460;2022-10-23T13:11:05;8.77;;;4.40;;
59374;SDS011;45172;55.006;73.460;2022-10-23T13:13:34;9.88;;;3.13;;
59374;SDS011;45172;55.006;73.460;2022-10-23T13:16:00;19.85;;;4.20;;
59374;SDS011;45172;55.006;73.460;2022-10-23T13:18:39;18.15;;;5.22;;
59374;SDS011;45172;55.006;73.460;2022-10-23T13:21:20;6.25;;;2.60;;
59374;SDS011;45172;55.006;73.460;2022-10-23T13:23:48;3.38;;;1.88;;
59374;SDS011;45172;55.006;73.460;2022-10-23T13:29:19;9.15;;;3.95;;
59374;SDS011;45172;55.006;73.460;2022-10-23T13:31:49;7.78;;;3.03;;
59374;SDS011;45172;55.006;73.460;2022-10-23T13:36:53;8.23;;;2.97;;
59374;SDS011;45172;55.006;73.460;2022-10-23T13:39:25;10.30;;;3.40;;
59374;SDS011;45172;55.006;73.460;2022-10-23T13:41:54;8.23;;;2.72;;
59374;SDS011;45172;55.006;73.460;2022-10-23T13:44:22;6.88;;;2.97;;
59374;SDS011;45172;55.006;73.460;2022-10-23T13:46:48;9.27;;;2.67;;
59374;SDS011;45172;55.006;73.460;2022-10-23T13:49:16;7.55;;;3.50;;
59374;SDS011;45172;55.006;73.460;2022-10-23T13:51:44;5.90;;;2.70;;
59374;SDS011;45172;55.006;73.460;2022-10-23T13:54:24;7.47;;;2.53;;
59374;SDS011;45172;55.006;73.460;2022-10-23T13:57:02;12.80;;;3.53;;
59374;SDS011;45172;55.006;73.460;2022-10-23T13:59:28;6.57;;;3.17;;
59374;SDS011;45172;55.006;73.460;2022-10-23T14:01:54;14.90;;;5.60;;
59374;SDS011;45172;55.006;73.460;2022-10-23T14:04:20;7.38;;;3.53;;
59374;SDS011;45172;55.006;73.460;2022-10-23T14:06:48;9.13;;;3.28;;
59374;SDS011;45172;55.006;73.460;2022-10-23T14:09:15;6.53;;;2.58;;
59374;SDS011;45172;55.006;73.460;2022-10-23T14:11:43;10.32;;;3.45;;
59374;SDS011;45172;55.006;73.460;2022-10-23T14:14:09;7.32;;;3.25;;
59374;SDS011;45172;55.006;73.460;2022-10-23T14:16:35;7.10;;;2.90;;
59374;SDS011;45172;55.006;73.460;2022-10-23T14:19:02;9.38;;;3.47;;
59374;SDS011;45172;55.006;73.460;2022-10-23T14:21:28;6.70;;;3.45;;
59374;SDS011;45172;55.006;73.460;2022-10-23T14:23:54;7.88;;;3.30;;
59374;SDS011;45172;55.006;73.460;2022-10-23T14:26:22;3.25;;;1.80;;
59374;SDS011;45172;55.006;73.460;2022-10-23T14:28:53;5.72;;;3.13;;
59374;SDS011;45172;55.006;73.460;2022-10-23T14:31:20;5.68;;;2.25;;
59374;SDS011;45172;55.006;73.460;2022-10-23T14:33:52;4.63;;;2.60;;
59374;SDS011;45172;55.006;73.460;2022-10-23T14:36:20;2.92;;;1.40;;
59374;SDS011;45172;55.006;73.460;2022-10-23T14:38:56;7.72;;;2.83;;
59374;SDS011;45172;55.006;73.460;2022-10-23T14:41:24;3.85;;;2.35;;
59374;SDS011;45172;55.006;73.460;2022-10-23T14:43:52;7.82;;;2.78;;
59374;SDS011;45172;55.006;73.460;2022-10-23T14:46:20;5.75;;;2.33;;
59374;SDS011;45172;55.006;73.460;2022-10-23T14:48:50;13.10;;;4.82;;
59374;SDS011;45172;55.006;73.460;2022-10-23T14:51:19;5.28;;;2.35;;
59374;SDS011;45172;55.006;73.460;2022-10-23T14:53:53;3.90;;;2.55;;
59374;SDS011;45172;55.006;73.460;2022-10-23T14:56:29;12.27;;;3.03;;
59374;SDS011;45172;55.006;73.460;2022-10-23T14:58:57;3.13;;;2.63;;
59374;SDS011;45172;55.006;73.460;2022-10-23T15:01:27;6.13;;;2.78;;
59374;SDS011;45172;55.006;73.460;2022-10-23T15:03:54;3.22;;;2.28;;
59374;SDS011;45172;55.006;73.460;2022-10-23T15:06:21;4.60;;;3.28;;
59374;SDS011;45172;55.006;73.460;2022-10-23T15:08:49;7.10;;;3.10;;
59374;SDS011;45172;55.006;73.460;2022-10-23T15:11:16;4.93;;;2.78;;
59374;SDS011;45172;55.006;73.460;2022-10-23T15:13:45;15.90;;;2.92;;
59374;SDS011;45172;55.006;73.460;2022-10-23T15:16:11;3.30;;;2.35;;
59374;SDS011;45172;55.006;73.460;2022-10-23T15:18:37;9.70;;;3.00;;
59374;SDS011;45172;55.006;73.460;2022-10-23T15:21:04;6.47;;;3.92;;
59374;SDS011;45172;55.006;73.460;2022-10-23T15:23:38;4.53;;;2.83;;
59374;SDS011;45172;55.006;73.460;2022-10-23T15:26:06;9.73;;;3.08;;
59374;SDS011;45172;55.006;73.460;2022-10-23T15:28:40;5.60;;;3.28;;
59374;SDS011;45172;55.006;73.460;2022-10-23T15:31:22;4.35;;;2.97;;
59374;SDS011;45172;55.006;73.460;2022-10-23T15:33:56;7.18;;;2.70;;
59374;SDS011;45172;55.006;73.460;2022-10-23T15:36:27;11.90;;;4.00;;
59374;SDS011;45172;55.006;73.460;2022-10-23T15:38:53;6.05;;;3.65;;
59374;SDS011;45172;55.006;73.460;2022-10-23T15:41:21;6.22;;;3.17;;
59374;SDS011;45172;55.006;73.460;2022-10-23T15:43:52;10.77;;;3.43;;
59374;SDS011;45172;55.006;73.460;2022-10-23T15:46:18;6.25;;;3.03;;
59374;SDS011;45172;55.006;73.460;2022-10-23T15:48:45;8.10;;;4.22;;
59374;SDS011;45172;55.006;73.460;2022-10-23T15:51:11;10.88;;;5.38;;
59374;SDS011;45172;55.006;73.460;2022-10-23T15:53:37;8.15;;;4.55;;
59374;SDS011;45172;55.006;73.460;2022-10-23T15:56:03;17.30;;;4.32;;
59374;SDS011;45172;55.006;73.460;2022-10-23T15:58:29;9.88;;;4.60;;
59374;SDS011;45172;55.006;73.460;2022-10-23T16:01:03;8.60;;;4.82;;
59374;SDS011;45172;55.006;73.460;2022-10-23T16:03:41;11.60;;;4.57;;
59374;SDS011;45172;55.006;73.460;2022-10-23T16:06:08;6.20;;;4.03;;
59374;SDS011;45172;55.006;73.460;2022-10-23T16:08:47;9.20;;;4.85;;
59374;SDS011;45172;55.006;73.460;2022-10-23T16:13:40;7.10;;;4.70;;
59374;SDS011;45172;55.006;73.460;2022-10-23T16:16:08;9.60;;;4.78;;
59374;SDS011;45172;55.006;73.460;2022-10-23T16:18:34;8.70;;;4.03;;
59374;SDS011;45172;55.006;73.460;2022-10-23T16:21:00;6.57;;;4.03;;
59374;SDS011;45172;55.006;73.460;2022-10-23T16:23:26;9.35;;;4.97;;
59374;SDS011;45172;55.006;73.460;2022-10-23T16:26:01;13.15;;;4.22;;
59374;SDS011;45172;55.006;73.460;2022-10-23T16:28:39;6.75;;;2.78;;
59374;SDS011;45172;55.006;73.460;2022-10-23T16:31:08;7.22;;;4.40;;
59374;SDS011;45172;55.006;73.460;2022-10-23T16:33:36;16.38;;;4.90;;
59374;SDS011;45172;55.006;73.460;2022-10-23T16:36:03;15.80;;;4.18;;
59374;SDS011;45172;55.006;73.460;2022-10-23T16:38:31;8.85;;;4.05;;
59374;SDS011;45172;55.006;73.460;2022-10-23T16:40:57;7.38;;;3.85;;
59374;SDS011;45172;55.006;73.460;2022-10-23T16:43:25;7.40;;;3.70;;
59374;SDS011;45172;55.006;73.460;2022-10-23T16:46:26;6.53;;;3.65;;
59374;SDS011;45172;55.006;73.460;2022-10-23T16:48:46;8.40;;;3.58;;
59374;SDS011;45172;55.006;73.460;2022-10-23T16:51:22;6.90;;;3.80;;
59374;SDS011;45172;55.006;73.460;2022-10-23T16:53:50;6.95;;;3.67;;
59374;SDS011;45172;55.006;73.460;2022-10-23T16:56:19;5.57;;;3.00;;
59374;SDS011;45172;55.006;73.460;2022-10-23T16:58:47;9.60;;;3.00;;
59374;SDS011;45172;55.006;73.460;2022-10-23T17:01:22;4.90;;;3.10;;